Terminal Aerodrome Forecast
Issued by NWS

Home | Current Version | Previous Version | Text Only | Print | Product List | Glossary On
Versions: 1 2 3 4 5 6 7 8 9 10 11 12 13 14 15 16 17
000
FTUS43 KIND 301700
TAFBMG
TAF
KBMG 301726Z 3018/3118 36009KT P6SM FEW035
     FM302000 35003KT P6SM SCT035 SCT250
     FM310200 VRB02KT P6SM SCT250
     FM311700 22008KT P6SM SCT035=

USA.gov is the U.S. government's official web portal to all federal, state and local government web resources and services.